Buzios, Brazil
Current Conditions -  °F | °C
As of 5:00 PM on Sunday 19 Oct 2014 (Local Time) from SBCB Reporting Station
Clear Clear  
Wind Chill: 82°   Ceiling: Unl
Heat Index: 94°   Visibility: 6mi
Dew Point: 81°   Wind: 12mph
Humidity: 94%   Direction: 80°E
Pressure: 29.74"   Gusts: NA
Location:  22.83°S, 42°W
Report Text: SBCB 192000Z 08010KT CAVOK 28/27 Q1007
Loading
Personal Weather Stations






























Interactive Weather Map
Tropical Storm Tracking
New forecast layout! Learn more

10-Day Weather Forecast

Advertisements
Track Severe Weather on mobile